<?xml version='1.0' encoding='UTF-8'?>
<gpx xmlns="http://www.topografix.com/GPX/1/1" creator="www.balnam.be" version="1.1" xmlns:xsi="http://www.w3.org/2001/XMLSchema-instance" xsi:schemaLocation="http://www.topografix.com/GPX/1/1 http://www.topografix.com/GPX/1/1/gpx.xsd">
<trk>
<name>xermm1</name>
<cmt>r</cmt>
<desc>Mormont Chemin n°1 Les Aunais</desc>
<link href="https://chemins.be/mormont/chemin/1"/><trkseg>
<trkpt lat="50.339728" lon="5.595500"><time>2026-05-08T02:53:10Z</time></trkpt>
<trkpt lat="50.339150" lon="5.594750"><time>2026-05-08T03:03:10Z</time></trkpt>
<trkpt lat="50.338189" lon="5.594014"><time>2026-05-08T03:13:10Z</time></trkpt>
<trkpt lat="50.337425" lon="5.593656"><time>2026-05-08T03:23:10Z</time></trkpt>
<trkpt lat="50.336836" lon="5.592594"><time>2026-05-08T03:33:10Z</time></trkpt>
<trkpt lat="50.335901" lon="5.592244"><time>2026-05-08T03:43:10Z</time></trkpt>
<trkpt lat="50.335753" lon="5.592447"><time>2026-05-08T03:53:10Z</time></trkpt>
<trkpt lat="50.334766" lon="5.591144"><time>2026-05-08T04:03:10Z</time></trkpt>
</trkseg></trk>
<trk>
<name>xermm1</name>
<cmt>q</cmt>
<desc>Mormont Chemin n°1 Les Aunais</desc>
<link href="https://chemins.be/mormont/chemin/1"/><trkseg>
<trkpt lat="50.334766" lon="5.591144"><time>2026-05-08T04:03:10Z</time></trkpt>
<trkpt lat="50.334739" lon="5.590027"><time>2026-05-08T04:13:10Z</time></trkpt>
<trkpt lat="50.334359" lon="5.589533"><time>2026-05-08T04:23:10Z</time></trkpt>
<trkpt lat="50.333932" lon="5.589268"><time>2026-05-08T04:33:10Z</time></trkpt>
</trkseg></trk>
<trk>
<name>xermm1</name>
<cmt>r</cmt>
<desc>Mormont Chemin n°1 Les Aunais</desc>
<link href="https://chemins.be/mormont/chemin/1"/><trkseg>
<trkpt lat="50.333932" lon="5.589268"><time>2026-05-08T04:33:10Z</time></trkpt>
<trkpt lat="50.331236" lon="5.587429"><time>2026-05-08T04:43:10Z</time></trkpt>
<trkpt lat="50.329143" lon="5.587164"><time>2026-05-08T04:53:10Z</time></trkpt>
<trkpt lat="50.328621" lon="5.586378"><time>2026-05-08T05:03:10Z</time></trkpt>
<trkpt lat="50.327946" lon="5.583889"><time>2026-05-08T05:13:10Z</time></trkpt>
<trkpt lat="50.327842" lon="5.582669"><time>2026-05-08T05:23:10Z</time></trkpt>
<trkpt lat="50.327619" lon="5.581932"><time>2026-05-08T05:33:10Z</time></trkpt>
<trkpt lat="50.325456" lon="5.579513"><time>2026-05-08T05:43:10Z</time></trkpt>
<trkpt lat="50.323638" lon="5.575352"><time>2026-05-08T05:53:10Z</time></trkpt>
<trkpt lat="50.322854" lon="5.574616"><time>2026-05-08T06:03:10Z</time></trkpt>
<trkpt lat="50.322612" lon="5.573739"><time>2026-05-08T06:13:10Z</time></trkpt>
<trkpt lat="50.322315" lon="5.573773"><time>2026-05-08T06:23:10Z</time></trkpt>
<trkpt lat="50.321716" lon="5.573421"><time>2026-05-08T06:33:10Z</time></trkpt>
<trkpt lat="50.321207" lon="5.572256"><time>2026-05-08T06:43:10Z</time></trkpt>
<trkpt lat="50.321037" lon="5.572140"><time>2026-05-08T06:53:10Z</time></trkpt>
<trkpt lat="50.320705" lon="5.572019"><time>2026-05-08T07:03:10Z</time></trkpt>
</trkseg></trk>
<trk>
<name>xermm1</name>
<cmt>v</cmt>
<desc>Mormont Chemin n°1 Les Aunais</desc>
<link href="https://chemins.be/mormont/chemin/1"/><trkseg>
<trkpt lat="50.320705" lon="5.572019"><time>2026-05-08T07:03:10Z</time></trkpt>
<trkpt lat="50.320475" lon="5.571746"><time>2026-05-08T07:13:10Z</time></trkpt>
<trkpt lat="50.319511" lon="5.571848"><time>2026-05-08T07:23:10Z</time></trkpt>
<trkpt lat="50.318984" lon="5.571568"><time>2026-05-08T07:33:10Z</time></trkpt>
<trkpt lat="50.318914" lon="5.570457"><time>2026-05-08T07:43:10Z</time></trkpt>
<trkpt lat="50.316948" lon="5.570168"><time>2026-05-08T07:53:10Z</time></trkpt>
<trkpt lat="50.315440" lon="5.569077"><time>2026-05-08T08:03:10Z</time></trkpt>
<trkpt lat="50.314537" lon="5.568549"><time>2026-05-08T08:13:10Z</time></trkpt>
<trkpt lat="50.312885" lon="5.566611"><time>2026-05-08T08:23:10Z</time></trkpt>
<trkpt lat="50.311381" lon="5.565998"><time>2026-05-08T08:33:10Z</time></trkpt>
<trkpt lat="50.311133" lon="5.565584"><time>2026-05-08T08:43:10Z</time></trkpt>
</trkseg>
</trk>
</gpx>